Time;durP1;ratioP1;P1;durP2;ratioP2;P2;SDS_P1;SDS_P2;PMS_P1;PMS_P2;Temp;Humidity;BMP_temperature;BMP_pressure;BME280_temperature;BME280_humidity;BME280_pressure;Samples;Min_cycle;Max_cycle;Signal;HPM_P1;HPM_P2
2022/07/05 00:00:59;;;;;;;;;3.00;1.67;;;;;18.62;53.55;101640.03;5071019;27;45594;-62
2022/07/05 00:03:25;;;;;;;;;2.33;2.33;;;;;18.64;53.46;101633.63;5074440;27;46178;-61
2022/07/05 00:05:51;;;;;;;;;1.33;1.00;;;;;18.68;53.27;101640.50;5075429;28;45481;-60
2022/07/05 00:08:16;;;;;;;;;2.67;1.00;;;;;18.61;53.52;101643.72;5074990;27;45270;-61
2022/07/05 00:10:42;;;;;;;;;1.00;1.00;;;;;18.46;53.86;101629.53;5075311;27;45514;-61
2022/07/05 00:13:08;;;;;;;;;2.00;1.00;;;;;18.44;53.76;101634.16;5054929;27;47147;-61
2022/07/05 00:15:34;;;;;;;;;1.33;1.33;;;;;18.44;53.78;101634.16;5063387;27;45368;-61
2022/07/05 00:17:59;;;;;;;;;3.00;1.00;;;;;18.43;53.63;101632.44;5073588;27;45152;-61
2022/07/05 00:20:25;;;;;;;;;3.67;2.33;;;;;18.46;53.35;101641.16;5076039;27;45381;-61
2022/07/05 00:22:51;;;;;;;;;2.33;2.33;;;;;18.42;53.67;101636.13;5059563;28;46250;-59
2022/07/05 00:25:16;;;;;;;;;1.00;1.00;;;;;18.32;53.67;101627.84;5067005;27;45373;-61
2022/07/05 00:27:41;;;;;;;;;0.33;0.33;;;;;18.32;53.72;101645.81;5071797;27;45520;-60
2022/07/05 00:30:08;;;;;;;;;3.67;1.00;;;;;18.13;54.14;101641.75;5074575;27;45492;-58
2022/07/05 00:32:33;;;;;;;;;0.33;0.33;;;;;18.27;53.88;101647.03;5071512;27;45550;-60
2022/07/05 00:34:59;;;;;;;;;1.33;1.33;;;;;18.22;53.73;101643.78;5072318;27;45553;-60
2022/07/05 00:37:24;;;;;;;;;2.00;1.00;;;;;18.19;54.72;101640.44;5072987;27;45368;-59
2022/07/05 00:39:50;;;;;;;;;2.00;2.00;;;;;18.17;54.21;101645.09;5074144;27;45887;-61
2022/07/05 00:42:16;;;;;;;;;2.67;1.00;;;;;18.13;54.10;101640.91;5076009;27;46204;-61
2022/07/05 00:44:41;;;;;;;;;1.33;1.00;;;;;18.14;54.73;101648.88;5074308;27;45621;-59
2022/07/05 00:47:09;;;;;;;;;1.00;1.00;;;;;18.09;54.95;101645.63;5072828;27;45468;-63
2022/07/05 00:49:37;;;;;;;;;2.67;2.00;;;;;18.03;55.09;101653.28;5073943;27;45466;-60
2022/07/05 00:52:04;;;;;;;;;1.00;1.00;;;;;17.93;55.20;101636.91;5075880;27;47166;-60
2022/07/05 00:54:32;;;;;;;;;1.33;1.33;;;;;17.98;55.02;101645.53;5061633;27;45393;-60
2022/07/05 00:56:57;;;;;;;;;2.00;2.00;;;;;17.93;55.12;101647.69;5079822;27;45456;-61
2022/07/05 00:59:23;;;;;;;;;0.67;0.67;;;;;17.90;55.24;101664.06;5079620;27;45472;-62
2022/07/05 01:01:49;;;;;;;;;3.00;2.00;;;;;17.87;55.40;101654.38;5067868;27;46020;-62
2022/07/05 01:04:14;;;;;;;;;2.00;2.00;;;;;17.90;55.16;101656.84;5088196;27;45414;-61
2022/07/05 01:06:42;;;;;;;;;1.00;1.00;;;;;17.87;55.16;101653.50;5079718;27;45218;-61
2022/07/05 01:09:12;;;;;;;;;1.00;1.00;;;;;17.86;54.72;101646.41;5066612;27;45533;-59
2022/07/05 01:11:38;;;;;;;;;2.33;1.00;;;;;17.75;55.55;101643.59;5077242;28;45591;-60
2022/07/05 01:14:07;;;;;;;;;1.00;1.00;;;;;17.70;55.95;101646.59;5075772;27;45569;-60
2022/07/05 01:16:33;;;;;;;;;1.67;1.67;;;;;17.56;55.85;101650.19;5079017;27;45353;-61
2022/07/05 01:18:59;;;;;;;;;1.00;1.00;;;;;17.60;56.26;101640.09;5075371;27;45682;-60
2022/07/05 01:21:28;;;;;;;;;4.00;2.00;;;;;17.57;56.05;101646.53;5078584;27;46687;-61
2022/07/05 01:23:54;;;;;;;;;3.00;1.00;;;;;17.45;56.01;101630.38;5068744;28;45314;-62
2022/07/05 01:26:19;;;;;;;;;2.67;2.00;;;;;17.55;56.39;101648.47;5060729;28;45348;-61
2022/07/05 01:28:44;;;;;;;;;2.67;1.00;;;;;17.49;57.00;101646.22;5070115;27;45685;-61
2022/07/05 01:31:10;;;;;;;;;0.00;0.00;;;;;17.30;57.24;101637.66;5075696;28;45382;-60
2022/07/05 01:33:36;;;;;;;;;1.67;1.33;;;;;17.25;57.69;101645.19;5077605;28;45512;-59
2022/07/05 01:36:02;;;;;;;;;1.00;1.00;;;;;17.17;57.65;101643.00;5077463;27;45412;-60
2022/07/05 01:38:27;;;;;;;;;1.00;1.00;;;;;17.08;57.86;101639.13;5078057;27;45571;-62
2022/07/05 01:40:53;;;;;;;;;0.00;0.00;;;;;17.04;58.40;101640.28;5074161;27;46598;-60
2022/07/05 01:43:20;;;;;;;;;0.33;0.33;;;;;16.97;57.90;101635.41;5077157;27;45772;-61
2022/07/05 01:45:47;;;;;;;;;3.33;2.00;;;;;16.94;58.55;101641.00;5072747;27;45682;-59
2022/07/05 01:48:14;;;;;;;;;4.67;1.00;;;;;16.81;57.88;101608.72;5069671;27;45544;-59
2022/07/05 01:50:49;;;;;;;;;2.00;1.00;;;;;16.89;58.52;101643.13;5075630;27;45519;-60
2022/07/05 01:53:18;;;;;;;;;0.33;0.33;;;;;16.88;58.57;101636.88;5073892;27;45341;-58
2022/07/05 01:55:44;;;;;;;;;3.00;1.00;;;;;16.87;58.85;101645.91;5077630;27;45350;-60
2022/07/05 01:58:10;;;;;;;;;3.33;2.33;;;;;16.78;59.89;101635.75;5075245;27;45259;-61
2022/07/05 02:00:46;;;;;;;;;2.33;2.00;;;;;16.71;60.53;101631.75;5071835;27;46005;-60
2022/07/05 02:03:13;;;;;;;;;2.00;2.00;;;;;16.73;60.05;101644.13;5066276;28;45472;-59
2022/07/05 02:05:38;;;;;;;;;1.00;1.00;;;;;16.79;59.63;101642.84;5077021;27;45487;-60
2022/07/05 02:08:04;;;;;;;;;4.00;1.33;;;;;16.82;60.01;101639.97;5072069;27;45334;-58
2022/07/05 02:10:29;;;;;;;;;2.00;2.00;;;;;16.76;60.45;101635.00;5073590;28;46395;-58
2022/07/05 02:12:55;;;;;;;;;2.33;2.00;;;;;16.73;60.65;101630.69;5066504;27;45295;-58
2022/07/05 02:15:24;;;;;;;;;3.00;2.00;;;;;16.74;60.63;101629.72;5063083;28;45449;-59
2022/07/05 02:17:49;;;;;;;;;2.00;2.00;;;;;16.59;61.58;101613.72;5072931;27;45331;-61
2022/07/05 02:20:15;;;;;;;;;1.00;1.00;;;;;16.61;61.60;101630.59;5067083;28;45519;-59
2022/07/05 02:22:40;;;;;;;;;3.00;2.00;;;;;16.40;61.92;101619.41;5077902;27;45557;-59
2022/07/05 02:25:06;;;;;;;;;1.67;1.67;;;;;16.43;61.54;101619.22;5058242;27;45336;-59
2022/07/05 02:27:32;;;;;;;;;4.00;1.33;;;;;16.45;62.35;101628.91;5062571;27;45213;-61
2022/07/05 02:29:57;;;;;;;;;5.67;1.33;;;;;16.48;63.07;101634.06;5073516;27;45492;-60
2022/07/05 02:32:22;;;;;;;;;0.00;0.00;;;;;16.36;63.94;101640.22;5074480;27;45483;-60
2022/07/05 02:34:48;;;;;;;;;2.00;2.00;;;;;16.25;63.81;101623.94;5075304;28;45235;-59
2022/07/05 02:37:13;;;;;;;;;2.00;2.00;;;;;16.22;64.37;101637.56;5075881;27;45517;-61
2022/07/05 02:39:38;;;;;;;;;4.00;3.00;;;;;16.14;64.66;101637.16;5077256;27;46122;-65
2022/07/05 02:42:04;;;;;;;;;2.00;2.00;;;;;16.18;64.28;101630.66;5076346;27;45775;-61
2022/07/05 02:44:29;;;;;;;;;3.33;3.00;;;;;16.27;63.79;101640.78;5075804;27;45314;-59
2022/07/05 02:46:55;;;;;;;;;2.00;2.00;;;;;16.25;64.18;101634.66;5066234;27;45374;-60
2022/07/05 02:49:23;;;;;;;;;3.33;2.00;;;;;16.23;64.28;101634.75;5074630;27;47269;-60
2022/07/05 02:51:48;;;;;;;;;5.00;2.00;;;;;16.25;63.85;101631.13;5066838;27;45330;-61
2022/07/05 02:54:13;;;;;;;;;3.00;3.00;;;;;16.18;65.04;101636.03;5069732;27;45752;-59
2022/07/05 02:56:39;;;;;;;;;1.33;1.00;;;;;16.11;65.16;101634.69;5077851;27;45486;-62
2022/07/05 02:59:05;;;;;;;;;2.67;2.00;;;;;16.03;65.41;101626.25;5076214;27;45402;-62
2022/07/05 03:01:30;;;;;;;;;6.33;4.00;;;;;15.97;65.99;101621.25;5075183;27;45439;-62
2022/07/05 03:03:56;;;;;;;;;3.00;3.00;;;;;15.98;65.53;101629.22;5073384;27;47027;-62
2022/07/05 03:06:21;;;;;;;;;1.67;1.67;;;;;15.95;65.84;101623.19;5075317;28;45564;-60
2022/07/05 03:08:47;;;;;;;;;4.00;4.00;;;;;15.95;65.46;101617.81;5075214;27;45306;-61
2022/07/05 03:11:12;;;;;;;;;2.67;2.67;;;;;15.99;65.54;101635.44;5070893;28;45262;-62
2022/07/05 03:13:37;;;;;;;;;3.00;3.00;;;;;15.99;65.20;101625.56;5061240;27;45354;-62
2022/07/05 03:16:03;;;;;;;;;7.00;4.33;;;;;15.89;65.57;101624.44;5075604;27;45366;-60
2022/07/05 03:18:29;;;;;;;;;3.00;3.00;;;;;15.92;66.00;101635.84;5070358;27;46691;-62
2022/07/05 03:20:54;;;;;;;;;3.00;3.00;;;;;15.92;65.71;101635.84;5076263;27;45381;-60
2022/07/05 03:23:24;;;;;;;;;3.00;3.00;;;;;15.96;65.01;101627.59;5070210;27;45392;-61
2022/07/05 03:25:50;;;;;;;;;3.00;3.00;;;;;16.05;64.83;101635.06;5061352;28;45541;-61
2022/07/05 03:28:15;;;;;;;;;9.00;5.00;;;;;16.09;64.82;101636.59;5069324;27;46875;-60
2022/07/05 03:30:40;;;;;;;;;4.67;4.67;;;;;16.08;64.82;101627.69;5058065;27;45307;-62
2022/07/05 03:33:06;;;;;;;;;8.00;6.67;;;;;16.01;66.19;101636.19;5063354;28;45445;-60
2022/07/05 03:35:31;;;;;;;;;6.00;4.67;;;;;16.04;65.72;101644.09;5076502;27;45376;-60
2022/07/05 03:37:56;;;;;;;;;7.67;4.00;;;;;15.95;66.92;101650.88;5076395;27;45251;-60
2022/07/05 03:40:22;;;;;;;;;2.00;2.00;;;;;15.96;66.05;101649.06;5074127;27;45504;-59
2022/07/05 03:42:47;;;;;;;;;5.67;5.00;;;;;15.98;65.96;101645.31;5073377;27;47039;-60
2022/07/05 03:45:13;;;;;;;;;5.00;5.00;;;;;16.02;65.01;101646.00;5072934;27;45491;-60
2022/07/05 03:47:38;;;;;;;;;4.33;4.33;;;;;16.04;64.54;101634.22;5060212;28;45336;-61
2022/07/05 03:50:04;;;;;;;;;9.00;4.67;;;;;16.12;65.29;101644.44;5074699;27;45359;-61
2022/07/05 03:52:30;;;;;;;;;5.00;5.00;;;;;16.10;64.66;101655.28;5073858;27;45487;-60
2022/07/05 03:54:55;;;;;;;;;8.00;6.33;;;;;16.11;64.42;101662.38;5074934;27;45702;-59
2022/07/05 03:57:24;;;;;;;;;5.33;5.33;;;;;16.12;65.10;101663.22;5073864;27;46357;-59
2022/07/05 03:59:49;;;;;;;;;2.67;2.67;;;;;16.04;64.90;101653.00;5059415;27;45563;-60
2022/07/05 04:02:15;;;;;;;;;4.33;3.33;;;;;16.09;64.57;101652.69;5045824;28;45355;-59
2022/07/05 04:04:40;;;;;;;;;3.00;3.00;;;;;16.09;64.56;101672.34;5069512;27;45552;-60
2022/07/05 04:07:06;;;;;;;;;5.67;3.00;;;;;16.13;64.57;101675.69;5075968;27;46181;-60
2022/07/05 04:09:31;;;;;;;;;2.00;2.00;;;;;16.17;64.77;101672.75;5076159;27;45315;-61
2022/07/05 04:11:56;;;;;;;;;6.67;5.00;;;;;16.11;64.57;101672.25;5075925;27;45292;-59
2022/07/05 04:14:22;;;;;;;;;6.33;4.67;;;;;16.16;64.28;101659.44;5062050;27;45246;-60
2022/07/05 04:16:47;;;;;;;;;4.00;3.67;;;;;16.19;65.16;101670.81;5054718;27;45282;-60
2022/07/05 04:19:12;;;;;;;;;6.00;6.00;;;;;16.17;64.69;101666.50;5058713;28;45434;-58
2022/07/05 04:21:38;;;;;;;;;3.00;3.00;;;;;16.19;64.61;101670.81;5056286;28;45312;-59
2022/07/05 04:24:04;;;;;;;;;4.00;4.00;;;;;16.19;64.58;101670.81;5074772;27;45477;-58
2022/07/05 04:26:29;;;;;;;;;6.00;3.33;;;;;16.23;64.37;101682.22;5074422;27;45525;-59
2022/07/05 04:28:54;;;;;;;;;6.67;4.00;;;;;16.09;64.20;101658.94;5073123;27;45338;-60
2022/07/05 04:31:20;;;;;;;;;10.33;5.00;;;;;16.22;65.31;101692.09;5073519;27;45375;-61
2022/07/05 04:33:45;;;;;;;;;8.67;4.67;;;;;16.14;64.93;101688.16;5075087;27;45689;-61
2022/07/05 04:36:11;;;;;;;;;5.00;5.00;;;;;16.12;65.92;101687.38;5074598;27;45649;-62
2022/07/05 04:38:36;;;;;;;;;6.00;4.33;;;;;15.93;66.69;101674.25;5074081;27;45552;-61
2022/07/05 04:41:02;;;;;;;;;5.00;5.00;;;;;15.83;66.88;101679.31;5074036;27;45816;-61
2022/07/05 04:43:27;;;;;;;;;5.33;4.33;;;;;15.80;67.05;101676.81;5074434;27;45341;-63
2022/07/05 04:45:52;;;;;;;;;8.00;5.00;;;;;15.91;66.50;101681.53;5075079;27;45456;-61
2022/07/05 04:48:18;;;;;;;;;6.00;5.00;;;;;15.97;66.42;101685.66;5075795;27;45380;-60
2022/07/05 04:50:43;;;;;;;;;4.67;3.33;;;;;16.04;66.14;101693.25;5067378;27;45384;-59
2022/07/05 04:53:09;;;;;;;;;6.33;5.00;;;;;15.99;66.50;101689.09;5054634;28;45406;-61
2022/07/05 04:55:35;;;;;;;;;5.67;3.67;;;;;15.78;67.82;101691.28;5055301;28;46569;-62
2022/07/05 04:58:01;;;;;;;;;5.00;5.00;;;;;15.72;68.14;101684.44;5066107;27;45511;-62
2022/07/05 05:00:26;;;;;;;;;5.67;3.67;;;;;15.81;66.81;101694.63;5061808;27;45884;-59
2022/07/05 05:02:52;;;;;;;;;5.00;5.00;;;;;15.76;67.44;101674.44;5075906;27;45204;-60
2022/07/05 05:05:17;;;;;;;;;2.00;2.00;;;;;15.87;67.30;101702.31;5075893;27;45370;-59
2022/07/05 05:07:44;;;;;;;;;4.33;4.00;;;;;15.91;66.89;101693.13;5076720;27;45302;-61
2022/07/05 05:10:10;;;;;;;;;8.00;5.33;;;;;15.87;67.19;101704.97;5071346;27;45251;-61
2022/07/05 05:12:36;;;;;;;;;5.67;5.00;;;;;15.78;67.00;101685.91;5073318;27;45484;-59
2022/07/05 05:15:02;;;;;;;;;5.00;3.67;;;;;15.85;66.74;101696.16;5067024;27;45334;-60
2022/07/05 05:17:37;;;;;;;;;6.00;5.67;;;;;15.99;66.23;101699.84;5068626;27;45505;-64
2022/07/05 05:20:09;;;;;;;;;5.00;5.00;;;;;15.99;66.27;101697.16;5075538;28;45447;-61
2022/07/05 05:22:35;;;;;;;;;9.00;3.00;;;;;16.05;65.87;101699.47;5075336;27;45314;-60
2022/07/05 05:25:00;;;;;;;;;4.00;4.00;;;;;16.00;66.13;101690.81;5077169;27;46466;-60
2022/07/05 05:27:26;;;;;;;;;7.00;7.00;;;;;16.09;65.71;101707.22;5090001;27;45386;-60
2022/07/05 05:29:51;;;;;;;;;10.33;6.00;;;;;16.01;66.42;101700.59;5070956;27;45353;-60
2022/07/05 05:32:17;;;;;;;;;9.00;7.33;;;;;15.97;67.45;101702.59;5070724;28;45401;-61
2022/07/05 05:34:42;;;;;;;;;5.00;5.00;;;;;15.96;67.75;101710.75;5075345;27;48817;-62
2022/07/05 05:37:08;;;;;;;;;12.00;10.00;;;;;15.90;67.73;101706.63;5057531;27;45862;-66
2022/07/05 05:39:33;;;;;;;;;5.50;5.00;;;;;15.95;66.83;101709.03;5079904;27;45545;-67
2022/07/05 05:41:58;;;;;;;;;12.00;8.00;;;;;16.01;66.70;101711.31;5079646;27;45678;-62
2022/07/05 05:44:24;;;;;;;;;9.00;6.33;;;;;16.08;66.40;101716.25;5080634;27;45345;-65
2022/07/05 05:46:49;;;;;;;;;7.33;6.00;;;;;16.13;65.39;101718.63;5079889;27;45436;-67
2022/07/05 05:49:15;;;;;;;;;9.67;6.33;;;;;16.15;66.41;101717.59;5080097;27;45430;-63
2022/07/05 05:51:40;;;;;;;;;10.00;6.33;;;;;16.17;65.83;101721.06;5078856;27;45666;-63
2022/07/05 05:54:05;;;;;;;;;6.67;6.67;;;;;16.20;65.92;101725.38;5079131;27;46188;-63
2022/07/05 05:56:31;;;;;;;;;12.00;7.67;;;;;16.26;65.75;101730.34;5076354;27;45527;-60
2022/07/05 05:58:56;;;;;;;;;10.67;7.67;;;;;16.28;65.89;101731.13;5079423;27;45495;-61
2022/07/05 06:01:22;;;;;;;;;11.00;7.00;;;;;16.28;65.55;101730.28;5080163;27;45405;-63
2022/07/05 06:03:47;;;;;;;;;7.67;7.67;;;;;16.30;65.57;101729.22;5077204;27;45423;-65
2022/07/05 06:06:12;;;;;;;;;9.67;8.33;;;;;16.29;66.43;101732.84;5078847;27;45332;-64
2022/07/05 06:08:38;;;;;;;;;8.00;6.33;;;;;16.28;66.36;101725.75;5078974;27;45381;-63
2022/07/05 06:11:04;;;;;;;;;6.00;6.00;;;;;16.34;65.33;101727.19;5086621;27;45539;-65
2022/07/05 06:13:29;;;;;;;;;6.67;6.67;;;;;16.39;65.78;101736.66;5065795;27;45254;-61
2022/07/05 06:15:55;;;;;;;;;6.00;4.00;;;;;16.45;65.57;101736.31;5060514;28;45255;-62
2022/07/05 06:18:22;;;;;;;;;12.00;7.67;;;;;16.41;64.79;101729.41;5089617;27;45498;-62
2022/07/05 06:20:47;;;;;;;;;7.67;7.67;;;;;16.39;65.05;101736.66;5072623;27;45445;-65
2022/07/05 06:23:13;;;;;;;;;8.00;8.00;;;;;16.40;66.02;101733.03;5078256;27;46247;-57
2022/07/05 06:25:39;;;;;;;;;11.33;8.33;;;;;16.36;65.91;101723.44;5077371;27;45943;-58
2022/07/05 06:28:07;;;;;;;;;8.67;8.33;;;;;16.43;66.09;101735.53;5075678;27;45457;-59
2022/07/05 06:30:35;;;;;;;;;12.00;10.00;;;;;16.48;66.28;101743.31;5076512;27;45326;-58
2022/07/05 06:33:00;;;;;;;;;5.33;4.33;;;;;16.49;65.92;101735.16;5077755;27;45726;-59
2022/07/05 06:35:26;;;;;;;;;9.67;8.67;;;;;16.51;66.27;101741.28;5077949;27;45342;-58
2022/07/05 06:38:00;;;;;;;;;10.67;8.33;;;;;16.51;66.46;101752.03;5077967;27;45673;-56
2022/07/05 06:40:33;;;;;;;;;11.67;9.00;;;;;16.58;65.97;101743.59;5077750;27;45224;-57
2022/07/05 06:43:02;;;;;;;;;11.00;9.67;;;;;16.63;65.76;101744.16;5077186;27;46400;-55
2022/07/05 06:45:27;;;;;;;;;12.00;11.00;;;;;16.71;65.82;101741.91;5076494;27;45464;-61
2022/07/05 06:48:02;;;;;;;;;14.00;8.33;;;;;16.73;65.49;101748.03;5076306;27;45523;-59
2022/07/05 06:50:30;;;;;;;;;11.00;8.33;;;;;16.76;65.96;101745.13;5076724;27;45426;-57
2022/07/05 06:52:56;;;;;;;;;10.33;10.33;;;;;16.75;65.65;101751.47;5078259;27;45373;-62
2022/07/05 06:55:23;;;;;;;;;10.67;9.67;;;;;16.76;65.67;101745.13;5078273;27;45327;-58
2022/07/05 06:57:48;;;;;;;;;9.67;9.67;;;;;16.82;65.75;101747.44;5078640;27;45305;-57
2022/07/05 07:00:15;;;;;;;;;11.00;10.00;;;;;16.89;65.47;101755.97;5078138;27;45465;-59
2022/07/05 07:02:40;;;;;;;;;8.33;8.33;;;;;16.91;65.22;101744.16;5075860;27;46355;-59
2022/07/05 07:05:07;;;;;;;;;11.67;9.00;;;;;16.97;65.32;101743.78;5077675;27;45335;-66
2022/07/05 07:10:17;;;;;;;;;9.67;8.33;;;;;17.03;64.84;101742.50;5077945;28;45517;-58
2022/07/05 07:12:42;;;;;;;;;13.67;11.33;;;;;17.11;64.17;101750.94;5077632;27;45366;-61
2022/07/05 07:15:08;;;;;;;;;14.33;10.67;;;;;17.18;64.29;101752.25;5077699;27;45471;-59
2022/07/05 07:17:34;;;;;;;;;10.67;10.67;;;;;17.24;64.62;101742.94;5059698;28;45386;-59
2022/07/05 07:19:59;;;;;;;;;12.33;10.33;;;;;17.23;64.41;101734.00;5077610;27;45323;-58
2022/07/05 07:22:25;;;;;;;;;12.33;11.00;;;;;17.28;64.02;101741.75;5081643;27;46613;-59
2022/07/05 07:24:50;;;;;;;;;11.00;10.67;;;;;17.30;64.28;101745.22;5076379;27;45440;-62
2022/07/05 07:27:16;;;;;;;;;12.00;12.00;;;;;17.26;64.18;101754.44;5081916;27;45507;-57
2022/07/05 07:29:42;;;;;;;;;11.67;9.00;;;;;17.34;64.16;101747.63;5072849;27;45811;-61
2022/07/05 07:32:09;;;;;;;;;12.33;9.00;;;;;17.45;63.91;101749.59;5085874;27;45470;-62
2022/07/05 07:34:36;;;;;;;;;14.33;11.67;;;;;17.51;63.42;101746.47;5075802;28;45270;-59
2022/07/05 07:37:02;;;;;;;;;11.33;8.33;;;;;17.48;63.88;101754.75;5085577;27;45446;-61
2022/07/05 07:39:28;;;;;;;;;14.00;12.00;;;;;17.47;64.06;101757.56;5073595;27;45502;-60
2022/07/05 07:41:53;;;;;;;;;11.00;10.67;;;;;17.50;63.66;101758.22;5059277;27;45542;-60
2022/07/05 07:44:19;;;;;;;;;11.33;11.33;;;;;17.61;63.44;101761.06;5071342;27;45542;-60
2022/07/05 07:46:45;;;;;;;;;14.67;11.00;;;;;17.71;62.90;101760.44;5067539;28;45247;-61
2022/07/05 07:49:12;;;;;;;;;13.00;10.67;;;;;17.81;62.89;101765.09;5070515;28;45509;-64
2022/07/05 07:51:38;;;;;;;;;19.00;13.33;;;;;17.86;62.30;101762.13;5073631;27;46812;-64
2022/07/05 07:54:03;;;;;;;;;23.33;23.33;;;;;17.87;62.29;101762.00;5066515;27;45491;-63
2022/07/05 07:56:29;;;;;;;;;11.00;11.00;;;;;17.93;62.09;101769.66;5070104;27;45752;-61
2022/07/05 07:58:55;;;;;;;;;18.33;12.33;;;;;17.99;62.13;101765.69;5073301;27;45411;-59
2022/07/05 08:01:20;;;;;;;;;13.00;11.33;;;;;17.98;61.66;101758.59;5071240;27;45772;-57
2022/07/05 08:03:46;;;;;;;;;12.67;10.33;;;;;18.09;61.85;101776.66;5063294;27;45426;-63
2022/07/05 08:06:13;;;;;;;;;11.00;8.67;;;;;18.17;61.46;101769.81;5069282;27;45354;-60
2022/07/05 08:08:40;;;;;;;;;12.00;12.00;;;;;18.29;61.08;101773.47;5081939;27;45372;-62
2022/07/05 08:11:09;;;;;;;;;12.33;9.33;;;;;18.36;60.33;101772.09;5074421;27;45487;-64
2022/07/05 08:13:35;;;;;;;;;11.33;10.67;;;;;18.41;60.28;101769.06;5074988;27;45502;-63
2022/07/05 08:16:01;;;;;;;;;7.33;6.67;;;;;18.47;60.31;101768.63;5069575;27;45332;-63
2022/07/05 08:23:55;;;;;;;;;7.33;7.33;;;;;18.70;59.01;101751.72;5067311;27;45539;-62
2022/07/05 08:26:21;;;;;;;;;6.00;6.00;;;;;18.79;58.81;101750.22;5070093;27;45495;-63
2022/07/05 08:28:47;;;;;;;;;11.00;10.00;;;;;18.94;58.43;101741.00;5064363;27;45354;-64
2022/07/05 08:31:12;;;;;;;;;9.67;8.00;;;;;19.12;58.00;101736.94;5071097;27;46165;-63
2022/07/05 08:33:38;;;;;;;;;11.00;11.00;;;;;19.55;56.31;101744.59;5063024;27;45521;-63
2022/07/05 08:36:03;;;;;;;;;10.33;8.67;;;;;20.13;55.85;101733.84;5061270;27;45602;-63
2022/07/05 08:38:29;;;;;;;;;9.00;8.00;;;;;20.76;53.58;101732.44;5067655;27;45475;-61
2022/07/05 08:40:56;;;;;;;;;11.33;7.67;;;;;21.28;52.22;101734.47;5080667;27;45750;-61
2022/07/05 08:43:26;;;;;;;;;9.00;9.00;;;;;21.72;50.62;101748.81;5076972;27;45467;-58
2022/07/05 08:45:58;;;;;;;;;10.00;10.00;;;;;22.05;49.69;101736.94;5094753;27;45399;-61
2022/07/05 08:48:23;;;;;;;;;12.00;11.00;;;;;22.52;51.22;101729.25;5074724;27;45628;-59
2022/07/05 08:50:51;;;;;;;;;4.33;4.33;;;;;23.10;50.74;101734.91;5072642;27;45288;-59
2022/07/05 08:53:18;;;;;;;;;8.67;7.00;;;;;23.45;45.15;101709.97;5064254;27;45758;-60
2022/07/05 08:55:45;;;;;;;;;9.33;6.33;;;;;23.84;47.36;101727.13;5063420;27;45567;-62
2022/07/05 08:58:11;;;;;;;;;8.75;6.00;;;;;24.30;44.89;101728.22;5075958;27;45441;-62
2022/07/05 09:00:38;;;;;;;;;9.50;9.00;;;;;24.72;44.93;101723.16;5075686;27;46346;-62
2022/07/05 09:03:05;;;;;;;;;9.00;7.75;;;;;25.13;41.82;101726.41;5075713;27;45228;-63
2022/07/05 09:05:35;;;;;;;;;7.25;7.00;;;;;25.39;41.25;101731.97;5074488;27;45481;-63
2022/07/05 09:08:01;;;;;;;;;7.00;6.00;;;;;25.81;43.36;101716.75;5076080;27;45475;-63
2022/07/05 09:10:30;;;;;;;;;8.50;6.75;;;;;26.18;39.87;101712.91;5074376;27;47020;-63
2022/07/05 09:13:00;;;;;;;;;8.00;6.00;;;;;26.58;40.26;101719.66;5077133;28;45222;-67
2022/07/05 09:15:25;;;;;;;;;6.00;4.75;;;;;27.17;41.11;101715.13;5079348;27;45378;-64
2022/07/05 09:17:50;;;;;;;;;6.00;5.00;;;;;27.65;40.00;101718.97;5079855;27;45354;-64
2022/07/05 09:20:18;;;;;;;;;3.00;3.00;;;;;27.99;36.83;101714.16;5078402;28;47283;-63
2022/07/05 09:22:52;;;;;;;;;6.00;4.20;;;;;27.74;35.38;101717.97;5079818;27;45262;-64
2022/07/05 09:25:32;;;;;;;;;3.00;3.00;;;;;27.69;38.03;101712.13;5078597;27;45369;-65
2022/07/05 09:28:04;;;;;;;;;6.00;4.80;;;;;27.84;35.96;101708.53;5079475;27;45501;-65
2022/07/05 09:30:30;;;;;;;;;5.60;5.00;;;;;28.03;35.75;101717.44;5094449;27;46253;-65
2022/07/05 09:33:09;;;;;;;;;8.75;5.00;;;;;28.18;37.09;101718.44;5078878;27;45247;-66
2022/07/05 09:35:37;;;;;;;;;7.40;5.60;;;;;28.53;36.56;101706.22;5079573;28;45426;-63
2022/07/05 09:38:04;;;;;;;;;4.00;4.00;;;;;29.12;36.34;101709.38;5079076;27;45591;-65
2022/07/05 09:40:31;;;;;;;;;7.40;6.00;;;;;29.43;35.80;101703.00;5078653;28;45459;-63
2022/07/05 09:43:18;;;;;;;;;5.20;5.20;;;;;29.81;34.78;101714.91;5078544;27;45404;-64
2022/07/05 09:45:59;;;;;;;;;7.40;5.40;;;;;29.91;35.46;101713.59;5077610;28;45367;-63
2022/07/05 09:48:29;;;;;;;;;7.60;6.80;;;;;29.93;31.64;101719.75;5079101;27;45581;-64
2022/07/05 09:51:10;;;;;;;;;7.60;6.20;;;;;30.05;31.76;101716.56;5078481;27;45366;-63
2022/07/05 09:53:46;;;;;;;;;5.40;5.00;;;;;30.32;32.33;101718.72;5078348;27;45308;-65
2022/07/05 09:56:11;;;;;;;;;5.00;5.00;;;;;30.46;33.62;101720.59;5078709;28;45237;-64
2022/07/05 09:58:37;;;;;;;;;5.75;5.75;;;;;30.42;30.67;101724.78;5079002;27;45240;-65
2022/07/05 10:01:23;;;;;;;;;6.00;6.00;;;;;30.41;31.70;101724.97;5078529;27;46096;-63
2022/07/05 10:03:53;;;;;;;;;5.20;5.20;;;;;30.50;31.73;101718.34;5079326;27;45343;-64
2022/07/05 10:06:20;;;;;;;;;7.20;4.80;;;;;30.69;31.04;101711.44;5079253;27;45345;-63
2022/07/05 10:08:48;;;;;;;;;5.00;5.00;;;;;30.49;29.35;101711.16;5078359;27;45556;-64
2022/07/05 10:11:15;;;;;;;;;6.00;5.20;;;;;30.67;31.96;101713.53;5078142;28;45411;-63
2022/07/05 10:13:41;;;;;;;;;10.80;10.00;;;;;30.91;30.19;101706.88;5077988;27;45377;-64
2022/07/05 10:16:07;;;;;;;;;7.00;5.80;;;;;30.98;29.75;101705.91;5076879;28;45434;-63
2022/07/05 10:18:34;;;;;;;;;5.50;3.75;;;;;31.02;29.79;101717.38;5077299;28;45562;-64
2022/07/05 10:21:02;;;;;;;;;6.40;6.40;;;;;31.02;30.59;101715.47;5064550;28;45476;-65
2022/07/05 10:23:28;;;;;;;;;7.40;6.60;;;;;31.10;30.25;101714.50;5056020;28;45319;-63
2022/07/05 10:25:56;;;;;;;;;5.60;4.20;;;;;31.11;30.64;101725.28;5057689;28;45396;-64
2022/07/05 10:28:22;;;;;;;;;5.40;4.60;;;;;30.97;29.81;101717.94;5058220;28;45425;-63
2022/07/05 10:30:52;;;;;;;;;6.00;5.00;;;;;30.86;30.86;101720.31;5057857;28;45505;-65
2022/07/05 10:33:24;;;;;;;;;4.00;4.00;;;;;30.33;29.01;101723.16;5074850;28;45358;-63
2022/07/05 10:35:50;;;;;;;;;5.00;5.00;;;;;29.29;30.57;101697.28;5078037;27;45192;-62
2022/07/05 10:38:17;;;;;;;;;6.00;6.00;;;;;28.95;32.06;101721.47;5078442;27;45315;-64
2022/07/05 10:40:46;;;;;;;;;3.20;2.60;;;;;28.59;31.65;101713.72;5078127;27;45378;-65
2022/07/05 10:43:14;;;;;;;;;5.20;4.20;;;;;28.19;32.44;101715.50;5077622;27;45464;-63
2022/07/05 10:45:47;;;;;;;;;3.20;3.20;;;;;27.66;32.95;101698.81;5077624;27;45348;-64
2022/07/05 10:48:20;;;;;;;;;5.00;5.00;;;;;27.02;34.56;101710.31;5077944;27;45389;-64
2022/07/05 10:50:58;;;;;;;;;6.80;4.80;;;;;27.02;35.22;101709.44;5093150;27;46785;-64
2022/07/05 10:53:36;;;;;;;;;4.40;4.40;;;;;26.94;35.00;101704.78;5093160;27;45362;-64
2022/07/05 10:56:05;;;;;;;;;3.80;3.80;;;;;26.76;34.75;101695.84;5077705;27;45280;-64
2022/07/05 10:58:33;;;;;;;;;6.60;4.80;;;;;26.65;34.37;101699.72;5078433;27;45287;-62
2022/07/05 11:01:20;;;;;;;;;3.25;3.25;;;;;26.34;34.55;101707.56;5077581;27;46557;-65
2022/07/05 11:03:52;;;;;;;;;5.00;5.00;;;;;26.16;35.04;101693.97;5077510;27;45262;-63
2022/07/05 11:06:22;;;;;;;;;4.00;4.00;;;;;25.95;34.42;101706.28;5076133;27;45460;-63
2022/07/05 11:09:00;;;;;;;;;26.00;18.50;;;;;25.66;35.77;101696.50;5077920;28;45294;-64
2022/07/05 11:11:31;;;;;;;;;5.75;5.00;;;;;25.41;35.48;101691.84;5057149;27;46133;-63
2022/07/05 11:13:58;;;;;;;;;4.00;3.00;;;;;25.38;36.49;101694.84;5057014;28;45374;-65
2022/07/05 11:16:25;;;;;;;;;8.00;4.40;;;;;25.31;36.34;101699.22;5055853;28;45296;-63
2022/07/05 11:18:53;;;;;;;;;5.50;5.50;;;;;25.15;36.63;101706.22;5056693;28;45339;-64
2022/07/05 11:21:22;;;;;;;;;5.00;5.00;;;;;25.19;37.20;101694.00;5057655;28;46403;-65
2022/07/05 11:23:49;;;;;;;;;5.40;4.00;;;;;25.33;36.66;101692.59;5056950;28;45425;-63
2022/07/05 11:26:18;;;;;;;;;7.50;6.25;;;;;25.22;36.74;101704.56;5057324;28;45518;-63
2022/07/05 11:28:46;;;;;;;;;7.00;5.50;;;;;25.20;37.41;101679.38;5057371;28;45396;-66